sensor_id;sensor_type;location;lat;lon;timestamp;temperature;humidity
20319;DHT22;10317;47.254;11.314;2023-07-22T03:43:06;15.60;99.90
20319;DHT22;10317;47.254;11.314;2023-07-22T03:54:04;15.50;99.90
20319;DHT22;10317;47.254;11.314;2023-07-22T04:28:06;15.60;99.90
20319;DHT22;10317;47.254;11.314;2023-07-22T04:38:34;15.70;99.90
20319;DHT22;10317;47.254;11.314;2023-07-22T05:09:01;16.20;99.90
20319;DHT22;10317;47.254;11.314;2023-07-22T05:15:47;16.30;99.90
20319;DHT22;10317;47.254;11.314;2023-07-22T05:25:24;16.50;99.90
20319;DHT22;10317;47.254;11.314;2023-07-22T05:35:38;16.90;99.90
20319;DHT22;10317;47.254;11.314;2023-07-22T05:45:11;17.00;99.90
20319;DHT22;10317;47.254;11.314;2023-07-22T05:47:42;17.10;99.90
20319;DHT22;10317;47.254;11.314;2023-07-22T06:11:24;18.10;99.90
20319;DHT22;10317;47.254;11.314;2023-07-22T06:28:57;20.10;99.90
20319;DHT22;10317;47.254;11.314;2023-07-22T06:31:54;21.30;99.90
20319;DHT22;10317;47.254;11.314;2023-07-22T06:34:20;22.10;99.90
20319;DHT22;10317;47.254;11.314;2023-07-22T06:36:51;22.50;99.90
20319;DHT22;10317;47.254;11.314;2023-07-22T06:39:22;23.00;99.90
20319;DHT22;10317;47.254;11.314;2023-07-22T06:41:49;23.40;99.90
20319;DHT22;10317;47.254;11.314;2023-07-22T06:44:20;23.40;99.90
20319;DHT22;10317;47.254;11.314;2023-07-22T06:47:11;22.90;99.90
20319;DHT22;10317;47.254;11.314;2023-07-22T06:49:44;22.70;99.90
20319;DHT22;10317;47.254;11.314;2023-07-22T06:52:10;22.40;99.90
20319;DHT22;10317;47.254;11.314;2023-07-22T06:54:57;22.00;99.90
20319;DHT22;10317;47.254;11.314;2023-07-22T06:57:24;21.60;99.90
20319;DHT22;10317;47.254;11.314;2023-07-22T06:59:56;21.50;99.90
20319;DHT22;10317;47.254;11.314;2023-07-22T07:02:23;21.30;99.90
20319;DHT22;10317;47.254;11.314;2023-07-22T07:05:13;21.00;99.90
20319;DHT22;10317;47.254;11.314;2023-07-22T07:07:42;20.90;99.90
20319;DHT22;10317;47.254;11.314;2023-07-22T07:10:14;21.20;99.90
20319;DHT22;10317;47.254;11.314;2023-07-22T07:12:40;21.30;99.90
20319;DHT22;10317;47.254;11.314;2023-07-22T07:15:06;21.20;99.90
20319;DHT22;10317;47.254;11.314;2023-07-22T07:17:33;21.80;99.90
20319;DHT22;10317;47.254;11.314;2023-07-22T07:19:59;21.30;99.90
20319;DHT22;10317;47.254;11.314;2023-07-22T07:22:28;21.00;99.90
20319;DHT22;10317;47.254;11.314;2023-07-22T07:25:14;21.30;99.90
20319;DHT22;10317;47.254;11.314;2023-07-22T07:28:07;21.30;99.90
20319;DHT22;10317;47.254;11.314;2023-07-22T07:31:16;21.50;99.90
20319;DHT22;10317;47.254;11.314;2023-07-22T07:34:09;22.10;99.90
20319;DHT22;10317;47.254;11.314;2023-07-22T07:37:11;22.70;99.90
20319;DHT22;10317;47.254;11.314;2023-07-22T07:40:17;22.80;99.90
20319;DHT22;10317;47.254;11.314;2023-07-22T07:42:44;22.30;99.90
20319;DHT22;10317;47.254;11.314;2023-07-22T07:45:11;22.10;99.90
20319;DHT22;10317;47.254;11.314;2023-07-22T07:47:37;21.80;99.90
20319;DHT22;10317;47.254;11.314;2023-07-22T07:50:03;21.70;99.90
20319;DHT22;10317;47.254;11.314;2023-07-22T07:52:29;21.50;99.90
20319;DHT22;10317;47.254;11.314;2023-07-22T07:54:54;21.50;99.90
20319;DHT22;10317;47.254;11.314;2023-07-22T07:57:20;21.40;99.90
20319;DHT22;10317;47.254;11.314;2023-07-22T07:59:45;21.40;99.90
20319;DHT22;10317;47.254;11.314;2023-07-22T08:02:11;21.30;99.90
20319;DHT22;10317;47.254;11.314;2023-07-22T08:04:37;21.10;99.90
20319;DHT22;10317;47.254;11.314;2023-07-22T08:07:05;20.90;99.90
20319;DHT22;10317;47.254;11.314;2023-07-22T08:09:31;21.20;99.90
20319;DHT22;10317;47.254;11.314;2023-07-22T08:11:57;21.20;99.90
20319;DHT22;10317;47.254;11.314;2023-07-22T08:14:23;21.40;99.90
20319;DHT22;10317;47.254;11.314;2023-07-22T08:16:49;21.40;99.90
20319;DHT22;10317;47.254;11.314;2023-07-22T08:19:14;21.90;99.90
20319;DHT22;10317;47.254;11.314;2023-07-22T08:21:40;22.20;99.90
20319;DHT22;10317;47.254;11.314;2023-07-22T08:24:08;22.20;99.90
20319;DHT22;10317;47.254;11.314;2023-07-22T08:38:59;23.10;99.70
20319;DHT22;10317;47.254;11.314;2023-07-22T08:45:41;24.20;97.80
20319;DHT22;10317;47.254;11.314;2023-07-22T08:48:10;23.90;97.90
20319;DHT22;10317;47.254;11.314;2023-07-22T08:57:48;24.60;97.50
20319;DHT22;10317;47.254;11.314;2023-07-22T09:00:39;23.90;97.30
20319;DHT22;10317;47.254;11.314;2023-07-22T09:03:32;23.40;98.30
20319;DHT22;10317;47.254;11.314;2023-07-22T09:06:02;22.80;98.90
20319;DHT22;10317;47.254;11.314;2023-07-22T09:11:48;22.50;99.90
20319;DHT22;10317;47.254;11.314;2023-07-22T09:14:38;22.10;99.90
20319;DHT22;10317;47.254;11.314;2023-07-22T09:21:44;22.20;99.60
20319;DHT22;10317;47.254;11.314;2023-07-22T09:24:34;22.20;99.90
20319;DHT22;10317;47.254;11.314;2023-07-22T09:27:00;22.50;99.90
20319;DHT22;10317;47.254;11.314;2023-07-22T09:29:36;23.00;98.40
20319;DHT22;10317;47.254;11.314;2023-07-22T09:32:02;23.60;97.90
20319;DHT22;10317;47.254;11.314;2023-07-22T09:37:53;24.90;95.50
20319;DHT22;10317;47.254;11.314;2023-07-22T09:40:25;24.70;94.20
20319;DHT22;10317;47.254;11.314;2023-07-22T09:42:53;24.20;94.70
20319;DHT22;10317;47.254;11.314;2023-07-22T09:45:22;23.80;95.70
20319;DHT22;10317;47.254;11.314;2023-07-22T09:47:49;23.50;96.20
20319;DHT22;10317;47.254;11.314;2023-07-22T09:54:12;23.10;98.00
20319;DHT22;10317;47.254;11.314;2023-07-22T09:57:02;23.60;96.50
20319;DHT22;10317;47.254;11.314;2023-07-22T09:59:38;24.10;94.50
20319;DHT22;10317;47.254;11.314;2023-07-22T10:02:22;24.40;95.50
20319;DHT22;10317;47.254;11.314;2023-07-22T10:04:51;24.90;94.90
20319;DHT22;10317;47.254;11.314;2023-07-22T10:07:18;25.00;93.70
20319;DHT22;10317;47.254;11.314;2023-07-22T10:09:45;25.00;95.20
20319;DHT22;10317;47.254;11.314;2023-07-22T10:12:11;25.00;94.00
20319;DHT22;10317;47.254;11.314;2023-07-22T10:14:40;24.80;94.50
20319;DHT22;10317;47.254;11.314;2023-07-22T10:17:07;24.20;94.70
20319;DHT22;10317;47.254;11.314;2023-07-22T10:19:34;24.50;95.40
20319;DHT22;10317;47.254;11.314;2023-07-22T10:22:01;24.80;94.10
20319;DHT22;10317;47.254;11.314;2023-07-22T10:24:28;25.00;93.30
20319;DHT22;10317;47.254;11.314;2023-07-22T10:26:54;25.20;90.50
20319;DHT22;10317;47.254;11.314;2023-07-22T10:29:20;24.80;92.50
20319;DHT22;10317;47.254;11.314;2023-07-22T10:31:46;24.90;90.70
20319;DHT22;10317;47.254;11.314;2023-07-22T10:34:11;25.10;92.80
20319;DHT22;10317;47.254;11.314;2023-07-22T10:36:37;25.40;90.20
20319;DHT22;10317;47.254;11.314;2023-07-22T10:39:03;25.30;90.00
20319;DHT22;10317;47.254;11.314;2023-07-22T10:41:29;25.40;88.70
20319;DHT22;10317;47.254;11.314;2023-07-22T10:43:56;25.50;87.00
20319;DHT22;10317;47.254;11.314;2023-07-22T10:46:37;25.60;87.30
20319;DHT22;10317;47.254;11.314;2023-07-22T10:58:30;25.50;84.80
20319;DHT22;10317;47.254;11.314;2023-07-22T11:01:31;25.00;84.80
20319;DHT22;10317;47.254;11.314;2023-07-22T11:16:51;25.60;84.00
20319;DHT22;10317;47.254;11.314;2023-07-22T11:19:21;25.40;84.00
20319;DHT22;10317;47.254;11.314;2023-07-22T11:21:56;25.20;81.40
20319;DHT22;10317;47.254;11.314;2023-07-22T11:24:31;24.80;82.70
20319;DHT22;10317;47.254;11.314;2023-07-22T11:30:46;24.70;83.30
20319;DHT22;10317;47.254;11.314;2023-07-22T11:33:42;24.50;85.30
20319;DHT22;10317;47.254;11.314;2023-07-22T11:36:09;24.50;85.40
20319;DHT22;10317;47.254;11.314;2023-07-22T11:38:36;24.40;83.40
20319;DHT22;10317;47.254;11.314;2023-07-22T11:41:02;24.60;83.60
20319;DHT22;10317;47.254;11.314;2023-07-22T11:43:27;24.90;85.50
20319;DHT22;10317;47.254;11.314;2023-07-22T11:45:53;25.30;83.30
20319;DHT22;10317;47.254;11.314;2023-07-22T11:48:20;25.40;80.50
20319;DHT22;10317;47.254;11.314;2023-07-22T11:50:45;25.00;78.80
20319;DHT22;10317;47.254;11.314;2023-07-22T11:53:11;24.70;81.90
20319;DHT22;10317;47.254;11.314;2023-07-22T11:55:38;24.40;82.10
20319;DHT22;10317;47.254;11.314;2023-07-22T11:58:03;24.40;83.00
20319;DHT22;10317;47.254;11.314;2023-07-22T12:00:29;24.30;82.70
20319;DHT22;10317;47.254;11.314;2023-07-22T12:02:55;24.40;81.80
20319;DHT22;10317;47.254;11.314;2023-07-22T12:05:22;24.20;79.20
20319;DHT22;10317;47.254;11.314;2023-07-22T12:07:48;24.00;81.60
20319;DHT22;10317;47.254;11.314;2023-07-22T12:10:15;23.70;83.30
20319;DHT22;10317;47.254;11.314;2023-07-22T12:12:43;23.70;81.40
20319;DHT22;10317;47.254;11.314;2023-07-22T12:15:18;23.70;83.90
20319;DHT22;10317;47.254;11.314;2023-07-22T12:17:51;23.70;83.10
20319;DHT22;10317;47.254;11.314;2023-07-22T12:20:17;23.70;85.00
20319;DHT22;10317;47.254;11.314;2023-07-22T12:22:43;23.70;83.30
20319;DHT22;10317;47.254;11.314;2023-07-22T12:25:10;23.70;83.10
20319;DHT22;10317;47.254;11.314;2023-07-22T12:27:37;23.70;86.30
20319;DHT22;10317;47.254;11.314;2023-07-22T12:30:03;23.70;83.60
20319;DHT22;10317;47.254;11.314;2023-07-22T12:32:29;23.70;85.00
20319;DHT22;10317;47.254;11.314;2023-07-22T12:34:55;23.80;85.30
20319;DHT22;10317;47.254;11.314;2023-07-22T12:37:20;23.70;88.50
20319;DHT22;10317;47.254;11.314;2023-07-22T12:39:46;23.40;90.10
20319;DHT22;10317;47.254;11.314;2023-07-22T12:42:12;23.40;90.20
20319;DHT22;10317;47.254;11.314;2023-07-22T12:44:37;23.30;91.00
20319;DHT22;10317;47.254;11.314;2023-07-22T12:47:03;23.20;92.90
20319;DHT22;10317;47.254;11.314;2023-07-22T12:49:29;23.10;94.70
20319;DHT22;10317;47.254;11.314;2023-07-22T12:51:55;22.90;95.30
20319;DHT22;10317;47.254;11.314;2023-07-22T12:54:20;22.70;95.20
20319;DHT22;10317;47.254;11.314;2023-07-22T12:56:46;22.60;95.60
20319;DHT22;10317;47.254;11.314;2023-07-22T12:59:12;22.30;97.20
20319;DHT22;10317;47.254;11.314;2023-07-22T13:01:39;22.10;98.90
20319;DHT22;10317;47.254;11.314;2023-07-22T13:04:25;21.90;99.60
20319;DHT22;10317;47.254;11.314;2023-07-22T13:06:58;21.70;99.90
20319;DHT22;10317;47.254;11.314;2023-07-22T13:09:43;21.40;99.80
20319;DHT22;10317;47.254;11.314;2023-07-22T13:12:11;21.30;99.90
20319;DHT22;10317;47.254;11.314;2023-07-22T13:14:38;21.30;99.90
20319;DHT22;10317;47.254;11.314;2023-07-22T13:17:18;21.30;99.90
20319;DHT22;10317;47.254;11.314;2023-07-22T13:19:43;21.40;99.90
20319;DHT22;10317;47.254;11.314;2023-07-22T13:22:09;21.40;99.90
20319;DHT22;10317;47.254;11.314;2023-07-22T13:24:37;21.60;99.90
20319;DHT22;10317;47.254;11.314;2023-07-22T13:27:06;21.70;99.90
20319;DHT22;10317;47.254;11.314;2023-07-22T13:29:32;21.80;99.90
20319;DHT22;10317;47.254;11.314;2023-07-22T13:31:58;22.00;99.90
20319;DHT22;10317;47.254;11.314;2023-07-22T13:34:23;22.20;99.90
20319;DHT22;10317;47.254;11.314;2023-07-22T13:36:51;22.30;99.90
20319;DHT22;10317;47.254;11.314;2023-07-22T13:39:50;22.30;99.90
20319;DHT22;10317;47.254;11.314;2023-07-22T13:42:20;22.20;99.90
20319;DHT22;10317;47.254;11.314;2023-07-22T13:44:46;22.10;99.90
20319;DHT22;10317;47.254;11.314;2023-07-22T13:47:15;22.00;99.90
20319;DHT22;10317;47.254;11.314;2023-07-22T13:49:42;22.00;99.90
20319;DHT22;10317;47.254;11.314;2023-07-22T13:52:07;22.10;99.90
20319;DHT22;10317;47.254;11.314;2023-07-22T13:54:33;22.10;99.90
20319;DHT22;10317;47.254;11.314;2023-07-22T13:56:59;21.80;99.90
20319;DHT22;10317;47.254;11.314;2023-07-22T13:59:24;21.60;99.90
20319;DHT22;10317;47.254;11.314;2023-07-22T14:01:50;21.40;99.90
20319;DHT22;10317;47.254;11.314;2023-07-22T14:04:16;21.30;99.90
20319;DHT22;10317;47.254;11.314;2023-07-22T14:07:03;21.20;99.90
20319;DHT22;10317;47.254;11.314;2023-07-22T14:09:33;21.30;99.90
20319;DHT22;10317;47.254;11.314;2023-07-22T14:11:59;21.50;99.90
20319;DHT22;10317;47.254;11.314;2023-07-22T14:14:26;21.50;99.90
20319;DHT22;10317;47.254;11.314;2023-07-22T14:17:35;21.60;99.90
20319;DHT22;10317;47.254;11.314;2023-07-22T14:20:04;21.60;99.90
20319;DHT22;10317;47.254;11.314;2023-07-22T14:22:32;21.50;99.90
20319;DHT22;10317;47.254;11.314;2023-07-22T14:24:59;21.30;99.90
20319;DHT22;10317;47.254;11.314;2023-07-22T14:27:31;21.20;99.90
20319;DHT22;10317;47.254;11.314;2023-07-22T14:29:59;21.20;99.90
20319;DHT22;10317;47.254;11.314;2023-07-22T14:32:26;21.10;99.90
20319;DHT22;10317;47.254;11.314;2023-07-22T14:34:52;21.20;99.90
20319;DHT22;10317;47.254;11.314;2023-07-22T14:37:18;21.30;99.90
20319;DHT22;10317;47.254;11.314;2023-07-22T14:39:44;21.50;99.90
20319;DHT22;10317;47.254;11.314;2023-07-22T14:42:09;21.60;99.90
20319;DHT22;10317;47.254;11.314;2023-07-22T14:44:35;21.80;99.90
20319;DHT22;10317;47.254;11.314;2023-07-22T14:47:13;21.80;99.90
20319;DHT22;10317;47.254;11.314;2023-07-22T14:50:12;21.70;99.90
20319;DHT22;10317;47.254;11.314;2023-07-22T14:53:12;21.70;99.90
20319;DHT22;10317;47.254;11.314;2023-07-22T15:09:25;21.20;99.90
20319;DHT22;10317;47.254;11.314;2023-07-22T15:12:19;21.10;99.90
20319;DHT22;10317;47.254;11.314;2023-07-22T15:19:06;21.60;99.90
20319;DHT22;10317;47.254;11.314;2023-07-22T15:21:53;21.80;99.90
20319;DHT22;10317;47.254;11.314;2023-07-22T15:24:22;22.20;99.90
20319;DHT22;10317;47.254;11.314;2023-07-22T15:26:47;22.40;99.90
20319;DHT22;10317;47.254;11.314;2023-07-22T15:29:13;22.50;99.90
20319;DHT22;10317;47.254;11.314;2023-07-22T15:31:40;22.30;99.90
20319;DHT22;10317;47.254;11.314;2023-07-22T15:34:06;22.00;99.90
20319;DHT22;10317;47.254;11.314;2023-07-22T15:36:32;22.20;99.90
20319;DHT22;10317;47.254;11.314;2023-07-22T15:38:57;22.40;99.90
20319;DHT22;10317;47.254;11.314;2023-07-22T15:41:23;22.30;99.90
20319;DHT22;10317;47.254;11.314;2023-07-22T15:44:15;22.10;99.90
20319;DHT22;10317;47.254;11.314;2023-07-22T15:46:40;21.80;99.90
20319;DHT22;10317;47.254;11.314;2023-07-22T15:49:06;21.50;99.90
20319;DHT22;10317;47.254;11.314;2023-07-22T15:57:38;21.10;99.90
20319;DHT22;10317;47.254;11.314;2023-07-22T16:00:05;21.10;99.90
20319;DHT22;10317;47.254;11.314;2023-07-22T16:02:35;21.00;99.90
20319;DHT22;10317;47.254;11.314;2023-07-22T16:05:01;21.00;99.90
20319;DHT22;10317;47.254;11.314;2023-07-22T16:07:31;21.00;99.90
20319;DHT22;10317;47.254;11.314;2023-07-22T16:10:00;21.00;99.90
20319;DHT22;10317;47.254;11.314;2023-07-22T16:12:39;21.00;99.90
20319;DHT22;10317;47.254;11.314;2023-07-22T16:15:05;21.00;99.90
20319;DHT22;10317;47.254;11.314;2023-07-22T16:17:34;21.00;99.90
20319;DHT22;10317;47.254;11.314;2023-07-22T16:23:22;20.90;99.90
20319;DHT22;10317;47.254;11.314;2023-07-22T16:25:48;21.00;99.90
20319;DHT22;10317;47.254;11.314;2023-07-22T16:28:13;21.10;99.90
20319;DHT22;10317;47.254;11.314;2023-07-22T16:30:39;21.30;99.90
20319;DHT22;10317;47.254;11.314;2023-07-22T16:33:05;21.40;99.90
20319;DHT22;10317;47.254;11.314;2023-07-22T16:35:31;21.30;99.90
20319;DHT22;10317;47.254;11.314;2023-07-22T16:38:02;21.30;99.90
20319;DHT22;10317;47.254;11.314;2023-07-22T16:40:27;21.20;99.90
20319;DHT22;10317;47.254;11.314;2023-07-22T16:42:53;21.10;99.90
20319;DHT22;10317;47.254;11.314;2023-07-22T16:45:24;21.10;99.90
20319;DHT22;10317;47.254;11.314;2023-07-22T16:47:52;21.10;99.90
20319;DHT22;10317;47.254;11.314;2023-07-22T16:50:20;21.10;99.90
20319;DHT22;10317;47.254;11.314;2023-07-22T16:52:49;21.20;99.90
20319;DHT22;10317;47.254;11.314;2023-07-22T16:55:25;21.30;99.90
20319;DHT22;10317;47.254;11.314;2023-07-22T16:57:51;21.30;99.90
20319;DHT22;10317;47.254;11.314;2023-07-22T17:00:16;21.30;99.90
20319;DHT22;10317;47.254;11.314;2023-07-22T17:02:43;21.20;99.90
20319;DHT22;10317;47.254;11.314;2023-07-22T17:05:10;21.00;99.90
20319;DHT22;10317;47.254;11.314;2023-07-22T17:10:58;20.70;99.90
20319;DHT22;10317;47.254;11.314;2023-07-22T17:16:46;21.00;99.90
20319;DHT22;10317;47.254;11.314;2023-07-22T17:19:18;21.10;99.90
20319;DHT22;10317;47.254;11.314;2023-07-22T17:21:44;21.10;99.90
20319;DHT22;10317;47.254;11.314;2023-07-22T17:24:09;21.10;99.90
20319;DHT22;10317;47.254;11.314;2023-07-22T17:26:48;21.10;99.90
20319;DHT22;10317;47.254;11.314;2023-07-22T17:29:14;21.10;99.90
20319;DHT22;10317;47.254;11.314;2023-07-22T17:31:42;21.00;99.90
20319;DHT22;10317;47.254;11.314;2023-07-22T17:34:08;20.90;99.90
20319;DHT22;10317;47.254;11.314;2023-07-22T17:36:34;20.80;99.90
20319;DHT22;10317;47.254;11.314;2023-07-22T17:38:59;20.70;99.90
20319;DHT22;10317;47.254;11.314;2023-07-22T17:41:25;20.60;99.90
20319;DHT22;10317;47.254;11.314;2023-07-22T17:43:51;20.50;99.90
20319;DHT22;10317;47.254;11.314;2023-07-22T17:46:16;20.40;99.90
20319;DHT22;10317;47.254;11.314;2023-07-22T17:48:45;20.20;99.90
20319;DHT22;10317;47.254;11.314;2023-07-22T17:51:13;20.10;99.90
20319;DHT22;10317;47.254;11.314;2023-07-22T17:53:39;20.10;99.90
20319;DHT22;10317;47.254;11.314;2023-07-22T17:56:04;20.00;99.90
20319;DHT22;10317;47.254;11.314;2023-07-22T17:58:31;19.90;99.90
20319;DHT22;10317;47.254;11.314;2023-07-22T18:01:01;19.90;99.90
20319;DHT22;10317;47.254;11.314;2023-07-22T18:03:28;19.80;99.90
20319;DHT22;10317;47.254;11.314;2023-07-22T18:05:55;19.70;99.90
20319;DHT22;10317;47.254;11.314;2023-07-22T18:08:23;19.60;99.90
20319;DHT22;10317;47.254;11.314;2023-07-22T18:10:48;19.60;99.90
20319;DHT22;10317;47.254;11.314;2023-07-22T18:13:14;19.50;99.90
20319;DHT22;10317;47.254;11.314;2023-07-22T18:15:43;19.40;99.90
20319;DHT22;10317;47.254;11.314;2023-07-22T18:18:09;19.40;99.90
20319;DHT22;10317;47.254;11.314;2023-07-22T18:20:35;19.30;99.90
20319;DHT22;10317;47.254;11.314;2023-07-22T18:23:01;19.30;99.90
20319;DHT22;10317;47.254;11.314;2023-07-22T18:25:27;19.30;99.90
20319;DHT22;10317;47.254;11.314;2023-07-22T18:27:53;19.20;99.90
20319;DHT22;10317;47.254;11.314;2023-07-22T18:30:18;19.10;99.90
20319;DHT22;10317;47.254;11.314;2023-07-22T18:32:47;19.10;99.90
20319;DHT22;10317;47.254;11.314;2023-07-22T18:35:13;19.10;99.90
20319;DHT22;10317;47.254;11.314;2023-07-22T18:37:38;19.10;99.90
20319;DHT22;10317;47.254;11.314;2023-07-22T18:40:05;19.00;99.90
20319;DHT22;10317;47.254;11.314;2023-07-22T18:42:31;18.90;99.90
20319;DHT22;10317;47.254;11.314;2023-07-22T18:44:59;18.90;99.90
20319;DHT22;10317;47.254;11.314;2023-07-22T18:47:24;18.80;99.90
20319;DHT22;10317;47.254;11.314;2023-07-22T18:49:53;18.70;99.90
20319;DHT22;10317;47.254;11.314;2023-07-22T18:52:21;18.60;99.90
20319;DHT22;10317;47.254;11.314;2023-07-22T18:54:47;18.60;99.90
20319;DHT22;10317;47.254;11.314;2023-07-22T18:57:15;18.50;99.90
20319;DHT22;10317;47.254;11.314;2023-07-22T18:59:41;18.40;99.90
20319;DHT22;10317;47.254;11.314;2023-07-22T19:02:07;18.30;99.90
20319;DHT22;10317;47.254;11.314;2023-07-22T19:04:42;18.30;99.90
20319;DHT22;10317;47.254;11.314;2023-07-22T19:07:08;18.20;99.90
20319;DHT22;10317;47.254;11.314;2023-07-22T19:09:33;18.10;99.90
20319;DHT22;10317;47.254;11.314;2023-07-22T19:11:59;18.10;99.90
20319;DHT22;10317;47.254;11.314;2023-07-22T19:14:25;18.00;99.90
20319;DHT22;10317;47.254;11.314;2023-07-22T19:16:55;18.10;99.90
20319;DHT22;10317;47.254;11.314;2023-07-22T19:19:21;18.10;99.90
20319;DHT22;10317;47.254;11.314;2023-07-22T19:21:53;18.10;99.90
20319;DHT22;10317;47.254;11.314;2023-07-22T19:24:19;18.00;99.90
20319;DHT22;10317;47.254;11.314;2023-07-22T19:26:45;18.00;99.90
20319;DHT22;10317;47.254;11.314;2023-07-22T19:29:15;18.00;99.90
20319;DHT22;10317;47.254;11.314;2023-07-22T19:31:44;18.00;99.90
20319;DHT22;10317;47.254;11.314;2023-07-22T19:34:11;17.90;99.90
20319;DHT22;10317;47.254;11.314;2023-07-22T19:36:40;17.90;99.90
20319;DHT22;10317;47.254;11.314;2023-07-22T19:39:06;17.90;99.90
20319;DHT22;10317;47.254;11.314;2023-07-22T19:41:33;17.80;99.90
20319;DHT22;10317;47.254;11.314;2023-07-22T19:44:02;17.80;99.90
20319;DHT22;10317;47.254;11.314;2023-07-22T19:46:28;17.80;99.90
20319;DHT22;10317;47.254;11.314;2023-07-22T19:48:54;17.80;99.90
20319;DHT22;10317;47.254;11.314;2023-07-22T19:51:20;17.80;99.90
20319;DHT22;10317;47.254;11.314;2023-07-22T19:53:46;17.90;99.90
20319;DHT22;10317;47.254;11.314;2023-07-22T19:56:14;17.80;99.90
20319;DHT22;10317;47.254;11.314;2023-07-22T19:58:40;17.80;99.90
20319;DHT22;10317;47.254;11.314;2023-07-22T20:01:06;17.80;99.90
20319;DHT22;10317;47.254;11.314;2023-07-22T20:03:32;17.70;99.90
20319;DHT22;10317;47.254;11.314;2023-07-22T20:06:20;17.70;99.90
20319;DHT22;10317;47.254;11.314;2023-07-22T20:08:46;17.70;99.90
20319;DHT22;10317;47.254;11.314;2023-07-22T20:11:14;17.70;99.90
20319;DHT22;10317;47.254;11.314;2023-07-22T20:13:40;17.60;99.90
20319;DHT22;10317;47.254;11.314;2023-07-22T20:16:08;17.60;99.90
20319;DHT22;10317;47.254;11.314;2023-07-22T20:18:34;17.60;99.90
20319;DHT22;10317;47.254;11.314;2023-07-22T20:21:04;17.50;99.90
20319;DHT22;10317;47.254;11.314;2023-07-22T20:23:30;17.50;99.90
20319;DHT22;10317;47.254;11.314;2023-07-22T20:26:01;17.50;99.90
20319;DHT22;10317;47.254;11.314;2023-07-22T20:28:27;17.50;99.90
20319;DHT22;10317;47.254;11.314;2023-07-22T20:30:55;17.50;99.90
20319;DHT22;10317;47.254;11.314;2023-07-22T20:33:20;17.40;99.90
20319;DHT22;10317;47.254;11.314;2023-07-22T20:35:52;17.40;99.90
20319;DHT22;10317;47.254;11.314;2023-07-22T20:38:19;17.40;99.90
20319;DHT22;10317;47.254;11.314;2023-07-22T20:40:47;17.30;99.90
20319;DHT22;10317;47.254;11.314;2023-07-22T20:43:15;17.30;99.90
20319;DHT22;10317;47.254;11.314;2023-07-22T20:45:42;17.20;99.90
20319;DHT22;10317;47.254;11.314;2023-07-22T20:48:08;17.10;99.90
20319;DHT22;10317;47.254;11.314;2023-07-22T22:37:48;15.60;99.90
